createdAt,value
2018-12-03T00:04:46.909Z,12.8
2018-12-03T00:15:01.111Z,12.9
2018-12-03T00:25:15.444Z,12.9
2018-12-03T00:35:30.399Z,13
2018-12-03T00:45:44.693Z,13
2018-12-03T00:55:59.586Z,13
2018-12-03T01:06:13.662Z,13.1
2018-12-03T01:16:27.520Z,13
2018-12-03T01:26:41.519Z,13
2018-12-03T01:36:56.409Z,12.9
2018-12-03T01:47:10.195Z,12.9
2018-12-03T01:57:24.373Z,13.1
2018-12-03T02:07:39.641Z,13.1
2018-12-03T02:17:54.220Z,13.2
2018-12-03T02:28:09.474Z,13.2
2018-12-03T02:38:23.796Z,13.1
2018-12-03T02:48:38.801Z,13
2018-12-03T02:58:53.217Z,13
2018-12-03T03:09:07.773Z,12.9
2018-12-03T03:19:21.603Z,13
2018-12-03T03:29:35.911Z,13
2018-12-03T03:39:50.635Z,13
2018-12-03T03:50:05.854Z,13
2018-12-03T04:00:19.591Z,13
2018-12-03T04:10:34.346Z,13
2018-12-03T04:20:48.299Z,12.8
2018-12-03T04:31:03.900Z,12.7
2018-12-03T04:41:18.233Z,12.6
2018-12-03T04:51:33.130Z,12.6
2018-12-03T05:01:47.942Z,12.5
2018-12-03T05:12:03.087Z,12.4
2018-12-03T05:22:17.708Z,12.6
2018-12-03T15:21:17.549Z,12.5
2018-12-03T15:31:32.722Z,11.7
2018-12-03T15:41:46.892Z,11.7
2018-12-03T15:52:00.626Z,11.5
2018-12-03T16:02:15.741Z,11.4
2018-12-03T16:12:29.855Z,11.4
2018-12-03T16:22:44.524Z,11.4
2018-12-03T16:33:00.156Z,11.5
2018-12-03T16:43:14.871Z,11.4
2018-12-03T16:53:30.315Z,11.6
2018-12-03T17:03:44.076Z,11.4
2018-12-03T17:13:58.968Z,11.4
2018-12-03T17:24:12.877Z,11.4
2018-12-03T17:34:26.663Z,11.4
2018-12-03T17:44:41.085Z,11.2
2018-12-03T17:54:55.769Z,11.3
2018-12-03T18:05:10.178Z,11.4
2018-12-03T18:15:25.237Z,11.7
2018-12-03T18:25:39.372Z,11.7
2018-12-03T18:35:54.459Z,11.6
2018-12-03T18:46:10.007Z,11.7
2018-12-03T18:56:23.738Z,11.8
2018-12-03T19:06:38.243Z,11.9
2018-12-03T19:16:53.052Z,12
2018-12-03T19:27:08.082Z,12
2018-12-03T19:37:21.950Z,12.1
2018-12-03T19:47:36.941Z,12.3
2018-12-03T19:57:51.715Z,12.1
2018-12-03T20:08:05.463Z,12
2018-12-03T20:18:19.492Z,11.7
2018-12-03T20:28:35.124Z,11.8
2018-12-03T20:38:49.935Z,11.7
2018-12-03T20:49:04.208Z,11.7
2018-12-03T20:59:19.147Z,11.8
2018-12-03T21:09:33.584Z,11.6
2018-12-03T21:19:48.802Z,11.6
2018-12-03T21:30:03.271Z,11.7
2018-12-03T21:40:18.151Z,11.8
2018-12-03T21:50:32.296Z,11.7
2018-12-03T22:00:47.609Z,11.6
2018-12-03T22:11:01.660Z,11.6
2018-12-03T22:21:16.703Z,10.2
2018-12-03T22:31:31.333Z,10
2018-12-03T22:41:46.502Z,9.9
2018-12-03T22:52:01.347Z,9.6
2018-12-03T23:02:15.790Z,9.1
2018-12-03T23:12:31.267Z,8.4
2018-12-03T23:22:46.164Z,8.3
2018-12-03T23:32:59.860Z,8.2
2018-12-03T23:43:14.717Z,7.9
2018-12-03T23:53:28.403Z,8
